Time;durP1;ratioP1;P1;durP2;ratioP2;P2;SDS_P1;SDS_P2;PMS_P1;PMS_P2;Temp;Humidity;BMP_temperature;BMP_pressure;BME280_temperature;BME280_humidity;BME280_pressure;Samples;Min_cycle;Max_cycle;Signal;HPM_P1;HPM_P2
2022/11/18 12:21:59;;;;;;;7.80;2.40;;;11.90;99.90;;;;;;3258568;27;20319;-66
2022/11/18 12:24:35;;;;;;;1268.00;99.83;;;12.10;99.90;;;;;;4860788;29;20211;-65
2022/11/18 12:27:04;;;;;;;32.47;9.17;;;12.10;99.90;;;;;;4860352;29;20232;-68
2022/11/18 12:29:40;;;;;;;1.27;0.60;;;12.00;99.90;;;;;;4860726;29;20230;-66
2022/11/18 12:32:27;;;;;;;2.00;0.50;;;12.00;99.90;;;;;;4860881;29;20207;-65
2022/11/18 12:34:59;;;;;;;2.10;0.60;;;12.00;99.90;;;;;;4860661;29;20212;-65
2022/11/18 12:37:58;;;;;;;2.83;0.53;;;12.00;99.90;;;;;;4860116;29;20729;-65
2022/11/18 12:40:35;;;;;;;86.93;13.50;;;12.00;99.90;;;;;;4860669;29;20217;-67
2022/11/18 12:45:51;;;;;;;3.90;0.43;;;12.00;99.90;;;;;;4864789;29;20214;-65
2022/11/18 12:48:32;;;;;;;1.13;0.43;;;12.00;99.90;;;;;;4864575;29;20215;-67
2022/11/18 12:51:00;;;;;;;0.90;0.40;;;12.00;99.90;;;;;;4865533;29;20222;-67
2022/11/18 12:53:39;;;;;;;2.37;0.40;;;11.70;99.90;;;;;;4864348;29;20214;-76
2022/11/18 12:56:22;;;;;;;1.93;0.40;;;11.80;99.90;;;;;;4863991;29;20270;-66
2022/11/18 12:58:50;;;;;;;2.40;0.40;;;11.80;99.90;;;;;;4863466;29;20220;-66
2022/11/18 13:01:19;;;;;;;1.53;0.60;;;11.90;99.90;;;;;;4863660;29;20299;-66
2022/11/18 13:03:46;;;;;;;5.67;0.83;;;11.90;99.90;;;;;;4860900;29;20265;-65
2022/11/18 13:06:23;;;;;;;264.47;27.20;;;11.90;99.90;;;;;;4861289;29;20232;-65
2022/11/18 13:08:54;;;;;;;8.27;1.87;;;11.90;99.90;;;;;;4862794;29;20736;-65
2022/11/18 13:20:21;;;;;;;4.20;0.80;;;12.10;99.90;;;;;;4863409;29;20272;-65
2022/11/18 13:25:38;;;;;;;3.87;1.00;;;12.10;99.90;;;;;;4863576;29;20264;-65
2022/11/18 13:28:17;;;;;;;2.33;0.60;;;12.10;99.90;;;;;;4863386;29;20242;-65
2022/11/18 13:30:50;;;;;;;4.70;1.20;;;12.00;99.90;;;;;;4863497;29;20214;-65
2022/11/18 13:33:17;;;;;;;2.50;0.87;;;12.10;99.90;;;;;;4863401;29;20216;-67
2022/11/18 13:35:44;;;;;;;0.70;0.63;;;12.10;99.90;;;;;;4863074;29;20706;-66
2022/11/18 13:38:21;;;;;;;2.37;0.80;;;12.10;99.90;;;;;;4863226;29;20672;-65
2022/11/18 13:41:11;;;;;;;5.10;0.67;;;12.10;99.90;;;;;;4863366;29;20215;-66
2022/11/18 13:43:38;;;;;;;1.17;0.57;;;12.10;99.90;;;;;;4863291;29;20754;-65
2022/11/18 13:46:10;;;;;;;2.90;0.63;;;12.20;99.90;;;;;;4863005;29;20326;-71
2022/11/18 13:48:42;;;;;;;2.00;0.60;;;12.10;99.90;;;;;;4862970;29;20219;-65
2022/11/18 13:51:10;;;;;;;1.13;0.50;;;12.10;99.90;;;;;;4862931;29;20678;-65
2022/11/18 13:53:38;;;;;;;1.53;0.70;;;12.10;99.90;;;;;;4862551;29;20216;-66
2022/11/18 13:56:15;;;;;;;2.87;0.60;;;12.10;99.90;;;;;;4862741;29;20235;-67
2022/11/18 13:58:44;;;;;;;5.63;2.30;;;12.00;99.90;;;;;;4862750;29;20249;-66
2022/11/18 14:01:15;;;;;;;3.27;1.00;;;12.10;99.90;;;;;;4862050;29;20204;-66
2022/11/18 14:03:50;;;;;;;2.80;0.80;;;12.10;99.90;;;;;;4862318;29;20239;-66
2022/11/18 14:06:28;;;;;;;2.40;0.80;;;12.10;99.90;;;;;;4861975;29;20242;-65
2022/11/18 14:09:16;;;;;;;4.83;0.73;;;12.10;99.90;;;;;;4861890;29;20204;-66
2022/11/18 14:11:46;;;;;;;5.07;1.17;;;12.00;99.90;;;;;;4862063;29;20208;-65
2022/11/18 14:14:32;;;;;;;2.67;1.30;;;12.00;99.90;;;;;;4862490;29;20218;-67
2022/11/18 14:17:17;;;;;;;3.60;1.00;;;12.00;99.90;;;;;;4862367;29;20236;-65
2022/11/18 14:19:45;;;;;;;2.90;0.67;;;11.90;99.90;;;;;;4861802;29;20215;-65
2022/11/18 14:22:15;;;;;;;4.00;0.80;;;11.90;99.90;;;;;;4862380;29;20227;-66
2022/11/18 14:24:42;;;;;;;3.87;0.97;;;11.80;99.90;;;;;;4862348;29;20211;-65
2022/11/18 14:27:33;;;;;;;2.87;1.00;;;11.90;99.90;;;;;;4862423;29;20238;-65
2022/11/18 14:30:00;;;;;;;3.00;1.00;;;11.90;99.90;;;;;;4862064;29;20218;-76
2022/11/18 14:32:27;;;;;;;3.40;1.00;;;11.90;99.90;;;;;;4861694;29;20212;-66
2022/11/18 14:35:00;;;;;;;2.83;0.60;;;11.90;99.90;;;;;;4861774;29;20217;-65
2022/11/18 14:37:27;;;;;;;1.50;0.67;;;11.80;99.90;;;;;;4861855;29;20231;-73
2022/11/18 14:39:55;;;;;;;3.20;0.93;;;12.00;99.90;;;;;;4862273;29;20222;-74
2022/11/18 14:42:24;;;;;;;2.60;0.70;;;12.10;99.90;;;;;;4861975;29;20251;-77
2022/11/18 14:44:52;;;;;;;6.07;1.37;;;12.30;99.90;;;;;;4862047;29;20216;-70
2022/11/18 14:47:24;;;;;;;1.07;0.63;;;12.20;99.90;;;;;;4862048;29;20235;-65
2022/11/18 14:49:51;;;;;;;3.53;0.87;;;12.20;99.90;;;;;;4862412;29;20214;-75
2022/11/18 14:52:18;;;;;;;2.47;0.80;;;12.10;99.90;;;;;;4862218;29;20226;-66
2022/11/18 14:54:45;;;;;;;3.43;0.77;;;12.20;99.90;;;;;;4862088;29;20223;-65
2022/11/18 14:57:15;;;;;;;2.10;0.90;;;12.10;99.90;;;;;;4862005;29;20232;-65
2022/11/18 14:59:42;;;;;;;2.87;0.77;;;12.10;99.90;;;;;;4861968;29;20219;-65
2022/11/18 15:02:15;;;;;;;3.87;1.13;;;12.10;99.90;;;;;;4860610;29;20212;-66
2022/11/18 15:04:42;;;;;;;3.27;1.23;;;12.10;99.90;;;;;;4861649;29;20244;-65
2022/11/18 15:07:12;;;;;;;3.47;1.20;;;12.00;99.90;;;;;;4860903;29;20236;-65
2022/11/18 15:09:38;;;;;;;4.13;0.90;;;12.00;99.90;;;;;;4861711;29;20571;-66
2022/11/18 15:12:06;;;;;;;2.67;0.80;;;12.10;99.90;;;;;;4861859;29;20219;-76
2022/11/18 15:14:33;;;;;;;2.67;1.10;;;12.10;99.90;;;;;;4861822;29;20227;-77
2022/11/18 15:17:00;;;;;;;2.97;0.90;;;12.00;99.90;;;;;;4861513;29;20231;-68
2022/11/18 15:19:29;;;;;;;4.27;1.10;;;11.90;99.90;;;;;;4862086;29;20219;-78
2022/11/18 15:21:55;;;;;;;2.23;0.93;;;11.80;99.90;;;;;;4861750;29;20216;-65
2022/11/18 15:24:22;;;;;;;7.13;1.00;;;11.80;99.90;;;;;;4861648;29;20251;-65
2022/11/18 15:26:49;;;;;;;2.83;0.70;;;11.80;99.90;;;;;;4861670;29;20236;-78
2022/11/18 15:29:18;;;;;;;2.07;0.63;;;11.80;99.90;;;;;;4861645;29;20684;-65
2022/11/18 15:31:45;;;;;;;3.03;1.00;;;11.80;99.90;;;;;;4861470;29;20212;-78
2022/11/18 15:34:12;;;;;;;2.90;0.80;;;11.80;99.90;;;;;;4861632;29;20227;-66
2022/11/18 15:36:40;;;;;;;2.90;0.97;;;11.80;99.90;;;;;;4861114;29;20318;-67
2022/11/18 15:39:07;;;;;;;5.60;1.10;;;11.70;99.90;;;;;;4860982;29;20218;-65
2022/11/18 15:41:34;;;;;;;2.90;0.90;;;11.70;99.90;;;;;;4861371;29;20295;-66
2022/11/18 15:44:01;;;;;;;2.50;0.80;;;11.70;99.90;;;;;;4861272;29;20244;-66
2022/11/18 15:46:29;;;;;;;3.20;0.83;;;11.60;99.90;;;;;;4861145;29;20235;-65
2022/11/18 15:48:58;;;;;;;8.10;1.30;;;11.50;99.90;;;;;;4861427;29;20215;-72
2022/11/18 15:51:26;;;;;;;1.13;0.70;;;11.30;99.90;;;;;;4861172;29;20227;-68
2022/11/18 15:53:54;;;;;;;1.93;1.10;;;11.20;99.90;;;;;;4861144;29;20214;-65
2022/11/18 15:56:27;;;;;;;4.13;1.03;;;11.10;99.90;;;;;;4860986;29;20228;-65
2022/11/18 15:58:54;;;;;;;3.77;1.40;;;11.10;99.90;;;;;;4861152;29;20212;-76
2022/11/18 16:01:22;;;;;;;4.83;1.50;;;11.20;99.90;;;;;;4860946;29;20222;-66
2022/11/18 16:03:49;;;;;;;1.63;0.80;;;11.30;99.90;;;;;;4861047;29;20246;-65
2022/11/18 16:06:16;;;;;;;3.20;0.80;;;11.40;99.90;;;;;;4860944;29;20236;-66
2022/11/18 16:08:43;;;;;;;2.73;1.23;;;11.40;99.90;;;;;;4861293;29;20211;-66
2022/11/18 16:14:00;;;;;;;6.50;1.03;;;11.40;99.90;;;;;;4823397;29;20207;-70
2022/11/18 16:16:28;;;;;;;3.37;1.10;;;11.30;99.90;;;;;;4860835;29;20235;-66
2022/11/18 16:18:56;;;;;;;5.97;1.00;;;11.40;99.90;;;;;;4855200;29;20268;-66
2022/11/18 16:21:23;;;;;;;3.90;1.10;;;11.30;99.90;;;;;;4860108;29;20216;-66
2022/11/18 16:23:50;;;;;;;1.53;0.80;;;11.30;99.90;;;;;;4860543;29;20247;-64
2022/11/18 16:26:18;;;;;;;1.87;0.70;;;11.30;99.90;;;;;;4860690;29;20232;-64
2022/11/18 16:28:45;;;;;;;1.57;0.63;;;11.30;99.90;;;;;;4860445;29;20212;-64
2022/11/18 16:33:56;;;;;;;3.53;0.93;;;11.30;99.90;;;;;;4878707;29;20211;-65
2022/11/18 16:36:26;;;;;;;2.23;0.90;;;11.20;99.90;;;;;;4872651;29;20274;-65
2022/11/18 16:38:52;;;;;;;4.47;1.00;;;11.10;99.90;;;;;;4860137;29;20216;-69
2022/11/18 16:41:33;;;;;;;3.20;0.90;;;11.10;99.90;;;;;;4859928;29;20212;-72
2022/11/18 16:44:02;;;;;;;2.27;1.10;;;11.10;99.90;;;;;;4860520;29;20239;-71
2022/11/18 16:46:30;;;;;;;3.83;1.27;;;11.10;99.90;;;;;;4860436;29;20703;-77
2022/11/18 16:48:57;;;;;;;3.03;0.80;;;10.90;99.90;;;;;;4860808;29;20216;-77
2022/11/18 16:51:26;;;;;;;2.03;0.80;;;11.00;99.90;;;;;;4860774;29;20227;-75
2022/11/18 16:53:54;;;;;;;0.93;0.80;;;10.90;99.90;;;;;;4860676;29;20224;-67
2022/11/18 16:56:24;;;;;;;5.27;1.10;;;10.90;99.90;;;;;;4860546;29;20231;-64
2022/11/18 16:58:56;;;;;;;3.50;1.27;;;10.90;99.90;;;;;;4860608;29;20212;-65
2022/11/18 17:01:23;;;;;;;2.80;1.03;;;10.90;99.90;;;;;;4860495;29;20218;-64
2022/11/18 17:03:50;;;;;;;3.77;0.90;;;10.80;99.90;;;;;;4860403;29;20252;-64
2022/11/18 17:06:17;;;;;;;5.03;1.20;;;10.80;99.90;;;;;;4860285;29;20236;-64
2022/11/18 17:08:44;;;;;;;4.80;1.13;;;10.80;99.90;;;;;;4860075;29;20219;-66
2022/11/18 17:11:11;;;;;;;5.13;1.10;;;10.70;99.90;;;;;;4860187;29;20668;-65
2022/11/18 17:13:40;;;;;;;1.97;1.23;;;10.70;99.90;;;;;;4860485;29;20220;-65
2022/11/18 17:16:09;;;;;;;3.67;1.40;;;10.60;99.90;;;;;;4860348;29;20235;-65
2022/11/18 17:18:36;;;;;;;2.13;1.30;;;10.70;99.90;;;;;;4860244;29;20222;-67
2022/11/18 17:21:04;;;;;;;3.43;1.23;;;10.80;99.90;;;;;;4860090;29;20230;-66
2022/11/18 17:23:31;;;;;;;3.40;1.50;;;10.70;99.90;;;;;;4860030;29;20242;-65
2022/11/18 17:25:58;;;;;;;4.40;1.70;;;10.70;99.90;;;;;;4860343;29;20219;-66
2022/11/18 17:28:25;;;;;;;3.47;1.30;;;10.70;99.90;;;;;;4860060;29;20222;-74
2022/11/18 17:30:53;;;;;;;2.23;1.13;;;10.70;99.90;;;;;;4862862;29;20277;-65
2022/11/18 17:33:20;;;;;;;3.43;1.20;;;10.80;99.90;;;;;;4863553;29;20574;-65
2022/11/18 17:35:57;;;;;;;2.60;1.30;;;10.90;99.90;;;;;;4863199;29;20212;-65
2022/11/18 17:38:24;;;;;;;4.97;1.50;;;10.90;99.90;;;;;;4863419;29;20678;-65
2022/11/18 17:40:53;;;;;;;4.00;1.60;;;11.00;99.90;;;;;;4863322;29;20617;-66
2022/11/18 17:43:20;;;;;;;1.83;1.20;;;11.00;99.90;;;;;;4863043;29;20212;-65
2022/11/18 17:45:49;;;;;;;3.90;1.50;;;11.00;99.90;;;;;;4862907;29;20216;-65
2022/11/18 17:48:18;;;;;;;6.37;2.70;;;11.10;99.90;;;;;;4862898;29;20212;-67
2022/11/18 17:50:45;;;;;;;3.90;1.70;;;11.00;99.90;;;;;;4863081;29;20207;-65
2022/11/18 17:53:12;;;;;;;2.80;1.63;;;11.00;99.90;;;;;;4863398;29;20212;-68
2022/11/18 17:55:38;;;;;;;3.23;1.80;;;11.00;99.90;;;;;;4863002;29;20212;-66
2022/11/18 17:58:05;;;;;;;4.73;1.70;;;11.00;99.90;;;;;;4863097;29;20239;-65
2022/11/18 18:00:32;;;;;;;3.73;1.70;;;11.00;99.90;;;;;;4863195;29;20216;-74
2022/11/18 18:02:59;;;;;;;5.00;1.50;;;11.10;99.90;;;;;;4862596;29;20212;-66
2022/11/18 18:05:28;;;;;;;3.03;1.60;;;11.10;99.90;;;;;;4862565;29;20248;-66
2022/11/18 18:07:56;;;;;;;3.63;1.67;;;11.20;99.90;;;;;;4862621;29;20239;-66
2022/11/18 18:10:23;;;;;;;3.67;1.60;;;11.20;99.90;;;;;;4863127;29;20579;-65
2022/11/18 18:15:34;;;;;;;4.30;1.47;;;11.20;99.90;;;;;;4863991;29;20211;-65
2022/11/18 18:18:01;;;;;;;4.80;1.70;;;11.10;99.90;;;;;;4864573;29;20699;-66
2022/11/18 18:20:29;;;;;;;1.90;1.20;;;11.10;99.90;;;;;;4862281;29;20223;-66
2022/11/18 18:22:56;;;;;;;3.83;1.20;;;11.00;99.90;;;;;;4862847;29;20218;-72
2022/11/18 18:25:23;;;;;;;3.83;2.10;;;11.00;99.90;;;;;;4862577;29;20711;-68
2022/11/18 18:27:50;;;;;;;4.07;1.73;;;11.00;99.90;;;;;;4862332;29;20236;-66
2022/11/18 18:30:18;;;;;;;3.07;1.80;;;11.00;99.90;;;;;;4862953;29;20212;-65
2022/11/18 18:32:44;;;;;;;3.67;1.70;;;11.10;99.90;;;;;;4862436;29;20216;-73
2022/11/18 18:35:11;;;;;;;3.50;2.00;;;11.10;99.90;;;;;;4862493;29;20687;-65
2022/11/18 18:37:39;;;;;;;3.03;1.80;;;11.10;99.90;;;;;;4862097;29;20734;-71
2022/11/18 18:40:07;;;;;;;4.67;1.80;;;11.10;99.90;;;;;;4862152;29;20212;-73
2022/11/18 18:42:34;;;;;;;5.77;2.07;;;11.00;99.90;;;;;;4862165;29;20269;-65
2022/11/18 18:47:45;;;;;;;2.93;2.00;;;11.10;99.90;;;;;;4862028;29;20591;-65
2022/11/18 18:50:11;;;;;;;4.50;2.07;;;11.10;99.90;;;;;;4862382;29;20216;-65
2022/11/18 18:52:40;;;;;;;3.53;1.80;;;11.10;99.90;;;;;;4862023;29;20209;-65
2022/11/18 18:55:07;;;;;;;3.93;2.10;;;11.10;99.90;;;;;;4861849;29;20223;-65
2022/11/18 18:57:34;;;;;;;4.07;1.97;;;11.20;99.90;;;;;;4862015;29;20232;-65
2022/11/18 19:00:01;;;;;;;6.73;2.90;;;11.20;99.90;;;;;;4862143;29;20216;-64
2022/11/18 19:02:27;;;;;;;4.70;2.30;;;11.20;99.90;;;;;;4862026;29;20224;-65
2022/11/18 19:04:54;;;;;;;3.50;2.00;;;11.20;99.90;;;;;;4861722;29;20592;-76
2022/11/18 19:07:21;;;;;;;2.67;2.07;;;11.10;99.90;;;;;;4861828;29;20232;-76
2022/11/18 19:09:49;;;;;;;3.20;1.60;;;11.10;99.90;;;;;;4861715;29;20306;-66
2022/11/18 19:15:00;;;;;;;4.40;2.37;;;11.00;99.90;;;;;;4861937;29;20310;-66
2022/11/18 19:17:27;;;;;;;7.10;2.40;;;11.00;99.90;;;;;;4861720;29;20232;-66
2022/11/18 19:22:49;;;;;;;3.33;2.10;;;11.00;99.90;;;;;;4822287;29;20213;-66
2022/11/18 19:25:18;;;;;;;2.73;1.93;;;11.00;99.90;;;;;;4851562;29;20737;-65
2022/11/18 19:27:45;;;;;;;5.67;2.13;;;10.80;99.90;;;;;;4861224;29;20264;-80
2022/11/18 19:30:12;;;;;;;3.63;2.20;;;10.70;99.90;;;;;;4861310;29;20207;-66
2022/11/18 19:32:41;;;;;;;6.27;2.37;;;10.70;99.90;;;;;;4861043;29;20259;-65
2022/11/18 19:35:09;;;;;;;4.77;2.50;;;10.70;99.90;;;;;;4861058;29;20214;-66
2022/11/18 19:37:36;;;;;;;5.37;3.17;;;10.80;99.90;;;;;;4861172;29;20238;-65
2022/11/18 19:40:03;;;;;;;4.27;2.50;;;10.70;99.90;;;;;;4861380;29;20215;-64
2022/11/18 19:42:34;;;;;;;3.27;2.20;;;10.80;99.90;;;;;;4861444;29;20212;-65
2022/11/18 19:45:02;;;;;;;6.67;2.40;;;10.70;99.90;;;;;;4860858;29;20304;-65
2022/11/18 19:47:28;;;;;;;4.40;2.30;;;10.70;99.90;;;;;;4860624;29;20239;-65
2022/11/18 19:49:55;;;;;;;3.73;2.23;;;10.50;99.90;;;;;;4857107;29;20231;-65
2022/11/18 19:52:22;;;;;;;3.43;2.47;;;10.50;99.90;;;;;;4859719;29;20212;-65
2022/11/18 19:54:49;;;;;;;3.70;2.40;;;10.30;99.90;;;;;;4860736;29;20274;-67
2022/11/18 19:57:16;;;;;;;5.23;2.80;;;10.40;99.90;;;;;;4860894;29;20261;-65
2022/11/18 19:59:44;;;;;;;5.30;2.50;;;10.40;99.90;;;;;;4861007;29;20230;-70
2022/11/18 20:02:11;;;;;;;4.10;2.73;;;10.40;99.90;;;;;;4861226;29;20218;-64
2022/11/18 20:04:38;;;;;;;5.83;2.50;;;10.30;99.90;;;;;;4861193;29;20242;-64
2022/11/18 20:07:05;;;;;;;5.00;2.57;;;10.30;99.90;;;;;;4860811;29;20613;-64
2022/11/18 20:09:32;;;;;;;6.90;2.80;;;10.30;99.90;;;;;;4861424;29;20212;-65
2022/11/18 20:11:58;;;;;;;4.67;2.80;;;10.40;99.90;;;;;;4861125;29;20211;-65
2022/11/18 20:14:25;;;;;;;5.23;2.83;;;10.40;99.90;;;;;;4861112;29;20238;-65
2022/11/18 20:16:53;;;;;;;6.50;3.30;;;10.40;99.90;;;;;;4861043;29;20244;-65
2022/11/18 20:19:20;;;;;;;6.40;3.00;;;10.30;99.90;;;;;;4860903;29;20218;-68
2022/11/18 20:21:48;;;;;;;4.70;3.27;;;10.30;99.90;;;;;;4860627;29;20586;-64
2022/11/18 20:24:17;;;;;;;6.27;3.20;;;10.20;99.90;;;;;;4860869;29;20222;-65
2022/11/18 20:26:44;;;;;;;4.30;2.80;;;10.20;99.90;;;;;;4860794;29;20254;-74
2022/11/18 20:29:11;;;;;;;5.00;2.83;;;10.10;99.90;;;;;;4860800;29;20218;-65
2022/11/18 20:31:37;;;;;;;5.73;3.30;;;10.10;99.90;;;;;;4860866;29;20309;-65
2022/11/18 20:34:06;;;;;;;6.33;3.20;;;10.20;99.90;;;;;;4860820;29;20222;-69
2022/11/18 20:36:34;;;;;;;6.27;2.70;;;10.20;99.90;;;;;;4860992;29;20236;-65
2022/11/18 20:39:03;;;;;;;4.03;2.77;;;10.20;99.90;;;;;;4860709;29;20307;-64
2022/11/18 20:41:30;;;;;;;6.63;3.63;;;10.10;99.90;;;;;;4860495;29;20211;-66
2022/11/18 20:43:58;;;;;;;6.30;3.40;;;10.00;99.90;;;;;;4860641;29;20751;-65
2022/11/18 20:46:25;;;;;;;6.17;3.13;;;10.10;99.90;;;;;;4860372;29;20248;-80
2022/11/18 20:48:52;;;;;;;5.27;2.80;;;10.00;99.90;;;;;;4860791;29;20218;-65
2022/11/18 20:51:22;;;;;;;6.00;3.23;;;10.10;99.90;;;;;;4860576;29;20647;-64
2022/11/18 20:53:49;;;;;;;5.67;3.13;;;10.10;99.90;;;;;;4860692;29;20755;-65
2022/11/18 20:56:17;;;;;;;6.90;3.40;;;10.10;99.90;;;;;;4860752;29;20242;-65
2022/11/18 20:58:45;;;;;;;6.53;3.00;;;10.10;99.90;;;;;;4860791;29;20212;-75
2022/11/18 21:01:13;;;;;;;7.13;3.63;;;10.20;99.90;;;;;;4860857;29;20208;-66
2022/11/18 21:03:41;;;;;;;7.17;2.80;;;10.20;99.90;;;;;;4862192;29;20208;-64
2022/11/18 21:06:10;;;;;;;7.37;3.13;;;10.20;99.90;;;;;;4863735;29;20248;-65
2022/11/18 21:08:39;;;;;;;6.40;3.40;;;10.20;99.90;;;;;;4864248;29;20218;-65
2022/11/18 21:11:07;;;;;;;7.33;3.10;;;10.30;99.90;;;;;;4864112;29;20741;-65
2022/11/18 21:16:19;;;;;;;6.83;3.37;;;10.40;99.90;;;;;;4863988;29;20315;-65
2022/11/18 21:18:46;;;;;;;7.33;3.50;;;10.40;99.90;;;;;;4864000;29;20208;-65
2022/11/18 21:24:00;;;;;;;6.83;3.67;;;10.40;99.90;;;;;;4864171;29;20682;-65
2022/11/18 21:26:28;;;;;;;10.23;3.77;;;10.50;99.90;;;;;;4864003;29;20246;-77
2022/11/18 21:28:56;;;;;;;5.83;3.27;;;10.40;99.90;;;;;;4863885;29;20220;-80
2022/11/18 21:31:25;;;;;;;9.60;3.40;;;10.40;99.90;;;;;;4864060;29;20766;-64
2022/11/18 21:33:53;;;;;;;7.60;3.67;;;10.40;99.90;;;;;;4863875;29;20212;-65
2022/11/18 21:36:21;;;;;;;5.77;3.10;;;10.30;99.90;;;;;;4863683;29;20234;-65
2022/11/18 21:38:48;;;;;;;10.00;3.07;;;10.40;99.90;;;;;;4863725;29;20216;-66
2022/11/18 21:41:16;;;;;;;7.43;2.80;;;10.30;99.90;;;;;;4863471;29;20267;-66
2022/11/18 21:43:44;;;;;;;7.50;3.30;;;10.30;99.90;;;;;;4863696;29;20211;-65
2022/11/18 21:46:13;;;;;;;5.43;3.33;;;10.40;99.90;;;;;;4863654;29;20243;-68
2022/11/18 21:48:40;;;;;;;12.23;3.60;;;10.30;99.90;;;;;;4863679;29;20211;-66
2022/11/18 21:51:09;;;;;;;5.50;3.30;;;10.40;99.90;;;;;;4863451;29;20211;-66
2022/11/18 21:53:38;;;;;;;4.67;3.20;;;10.20;99.90;;;;;;4863281;29;20744;-66
2022/11/18 21:56:07;;;;;;;7.90;3.57;;;10.20;99.90;;;;;;4863019;29;20223;-66
2022/11/18 21:58:35;;;;;;;8.37;4.00;;;10.10;99.90;;;;;;4863254;29;20208;-66
2022/11/18 22:01:09;;;;;;;7.30;3.87;;;10.00;99.90;;;;;;4863269;29;20736;-67
2022/11/18 22:03:37;;;;;;;6.70;4.23;;;10.10;99.90;;;;;;4863274;29;20667;-68
2022/11/18 22:06:04;;;;;;;5.27;3.77;;;10.00;99.90;;;;;;4862840;29;20244;-66
